UAL2476 KSFO-KSAN
Flight info
| Callsign | UAL2476 |
|---|---|
| Flight time | N/A |
| Altitude | 35000 |
| Route | WESLA5 YYUNG LAX COMIX2 |
| Aircraft | A21N/M-SDE2E3FGHIRWXY/LB1 |
Departure
| Time | 2026-05-04 12:46 |
|---|---|
| Airport | San Francisco International Airport (KSFO) |
Arrival
| Time | N/A |
|---|---|
| Airport | San Diego International Airport (KSAN) |
| Time | Latitude | Longitude | Altitude | Speed | Heading |
|---|---|---|---|---|---|
| 2026-05-04 12:23 | 37.62073 | -122.39062 | 27 ft | 0 kts | 73° |
| 2026-05-04 12:33 | 37.62072 | -122.39066 | 27 ft | 3 kts | 73° |
| 2026-05-04 12:34 | 37.62065 | -122.39091 | 27 ft | 4 kts | 64° |
| 2026-05-04 12:34 | 37.62051 | -122.39118 | 27 ft | 4 kts | 40° |
| 2026-05-04 12:34 | 37.62028 | -122.39134 | 27 ft | 4 kts | 8° |
| 2026-05-04 12:34 | 37.62006 | -122.39130 | 27 ft | 4 kts | 319° |
| 2026-05-04 12:35 | 37.61999 | -122.39118 | 27 ft | 1 kts | 297° |
| 2026-05-04 12:35 | 37.61998 | -122.39116 | 27 ft | 0 kts | 297° |
| 2026-05-04 12:38 | 37.62004 | -122.39131 | 27 ft | 5 kts | 297° |
| 2026-05-04 12:38 | 37.62023 | -122.39176 | 27 ft | 7 kts | 297° |
| 2026-05-04 12:38 | 37.62065 | -122.39209 | 27 ft | 9 kts | 11° |
| 2026-05-04 12:39 | 37.62128 | -122.39173 | 27 ft | 11 kts | 28° |
| 2026-05-04 12:39 | 37.62202 | -122.39123 | 27 ft | 13 kts | 29° |
| 2026-05-04 12:39 | 37.62248 | -122.39019 | 27 ft | 15 kts | 73° |
| 2026-05-04 12:39 | 37.62253 | -122.38888 | 27 ft | 16 kts | 120° |
| 2026-05-04 12:40 | 37.62197 | -122.38755 | 27 ft | 18 kts | 117° |
| 2026-05-04 12:40 | 37.62137 | -122.38609 | 27 ft | 19 kts | 118° |
| 2026-05-04 12:40 | 37.62071 | -122.38453 | 27 ft | 21 kts | 118° |
| 2026-05-04 12:40 | 37.62001 | -122.38286 | 27 ft | 22 kts | 117° |
| 2026-05-04 12:41 | 37.61927 | -122.38110 | 27 ft | 23 kts | 118° |
| 2026-05-04 12:41 | 37.61849 | -122.37925 | 27 ft | 25 kts | 117° |
| 2026-05-04 12:41 | 37.61782 | -122.37717 | 27 ft | 26 kts | 111° |
| 2026-05-04 12:41 | 37.61714 | -122.37498 | 27 ft | 28 kts | 117° |
| 2026-05-04 12:42 | 37.61622 | -122.37279 | 27 ft | 29 kts | 118° |
| 2026-05-04 12:42 | 37.61560 | -122.37132 | 27 ft | 18 kts | 118° |
| 2026-05-04 12:42 | 37.61500 | -122.36988 | 27 ft | 19 kts | 118° |
| 2026-05-04 12:42 | 37.61415 | -122.36855 | 27 ft | 21 kts | 133° |
| 2026-05-04 12:43 | 37.61332 | -122.36701 | 27 ft | 22 kts | 117° |
| 2026-05-04 12:43 | 37.61262 | -122.36524 | 27 ft | 23 kts | 117° |
| 2026-05-04 12:43 | 37.61182 | -122.36340 | 27 ft | 25 kts | 120° |
| 2026-05-04 12:43 | 37.61118 | -122.36191 | 27 ft | 14 kts | 120° |
| 2026-05-04 12:44 | 37.61131 | -122.36087 | 27 ft | 15 kts | 25° |
| 2026-05-04 12:44 | 37.61222 | -122.36028 | 27 ft | 9 kts | 27° |
| 2026-05-04 12:44 | 37.61256 | -122.36036 | 27 ft | 7 kts | 297° |
| 2026-05-04 12:44 | 37.61262 | -122.36050 | 27 ft | 0 kts | 297° |
| 2026-05-04 12:45 | 37.61295 | -122.36131 | 27 ft | 38 kts | 297° |
| 2026-05-04 12:45 | 37.61541 | -122.36719 | 27 ft | 112 kts | 298° |
| 2026-05-04 12:45 | 37.62002 | -122.37820 | 28 ft | 169 kts | 298° |
| 2026-05-04 12:45 | 37.62570 | -122.39171 | 536 ft | 171 kts | 298° |
| 2026-05-04 12:46 | 37.63121 | -122.40499 | 1225 ft | 172 kts | 295° |
| 2026-05-04 12:46 | 37.63657 | -122.41896 | 1775 ft | 184 kts | 295° |
| 2026-05-04 12:46 | 37.64276 | -122.43387 | 2346 ft | 198 kts | 297° |
| 2026-05-04 12:46 | 37.64951 | -122.44950 | 3021 ft | 209 kts | 298° |
| 2026-05-04 12:47 | 37.65693 | -122.46643 | 3516 ft | 231 kts | 298° |
| 2026-05-04 12:47 | 37.66527 | -122.48443 | 4025 ft | 251 kts | 300° |
| 2026-05-04 12:47 | 37.67219 | -122.50526 | 4648 ft | 263 kts | 276° |
| 2026-05-04 12:47 | 37.66977 | -122.52795 | 5495 ft | 265 kts | 245° |
| 2026-05-04 12:48 | 37.65881 | -122.54648 | 6330 ft | 266 kts | 217° |
| 2026-05-04 12:48 | 37.64227 | -122.55657 | 7099 ft | 267 kts | 190° |
| 2026-05-04 12:48 | 37.62375 | -122.55589 | 7856 ft | 270 kts | 163° |
| 2026-05-04 12:48 | 37.60638 | -122.54649 | 8652 ft | 274 kts | 152° |
| 2026-05-04 12:49 | 37.58922 | -122.53532 | 9433 ft | 279 kts | 152° |
| 2026-05-04 12:49 | 37.57169 | -122.52420 | 10147 ft | 286 kts | 153° |
| 2026-05-04 12:49 | 37.55349 | -122.51296 | 10519 ft | 305 kts | 154° |